Time;durP1;ratioP1;P1;durP2;ratioP2;P2;SDS_P1;SDS_P2;PMS_P1;PMS_P2;Temp;Humidity;BMP_temperature;BMP_pressure;BME280_temperature;BME280_humidity;BME280_pressure;Samples;Min_cycle;Max_cycle;Signal;HPM_P1;HPM_P2
2020/12/07 00:00:08;;;;;;;;;;;;;;;;;;5033901;28;1067;-81
2020/12/07 00:02:34;;;;;;;;;;;;;;;;;;5033271;28;1358;-81
2020/12/07 00:05:00;;;;;;;;;;;;;;;;;;5033433;28;1573;-82
2020/12/07 00:07:25;;;;;;;;;;;;;;;;;;5051644;28;1893;-81
2020/12/07 00:09:51;;;;;;;;;;;;;;;;;;5038394;28;873;-82
2020/12/07 00:12:16;;;;;;;;;;;;;;;;;;5039083;28;1313;-81
2020/12/07 00:14:41;;;;;;;;;;;;;;;;;;5039136;28;1232;-81
2020/12/07 00:17:08;;;;;;;;;;;;;;;;;;5040035;28;1020;-81
2020/12/07 00:19:33;;;;;;;;;;;;;;;;;;5038743;28;1594;-81
2020/12/07 00:21:58;;;;;;;;;;;;;;;;;;5039637;28;1401;-81
2020/12/07 00:24:23;;;;;;;;;;;;;;;;;;5039428;28;853;-81
2020/12/07 00:26:49;;;;;;;;;;;;;;;;;;5036670;28;1971;-81
2020/12/07 00:29:14;;;;;;;;;;;;;;;;;;5037982;28;885;-83
2020/12/07 00:31:40;;;;;;;;;;;;;;;;;;5037784;28;1433;-82
2020/12/07 00:34:05;;;;;;;;;;;;;;;;;;5036950;28;1154;-82
2020/12/07 00:36:30;;;;;;;;;;;;;;;;;;5037865;28;826;-83
2020/12/07 00:38:55;;;;;;;;;;;;;;;;;;5037780;28;818;-81
2020/12/07 00:41:22;;;;;;;;;;;;;;;;;;5037625;28;1262;-81
2020/12/07 00:43:47;;;;;;;;;;;;;;;;;;5037860;28;996;-81
2020/12/07 00:46:12;;;;;;;;;;;;;;;;;;5037737;28;1886;-81
2020/12/07 00:48:38;;;;;;;;;;;;;;;;;;5037018;28;1161;-81
2020/12/07 00:51:03;;;;;;;;;;;;;;;;;;5037465;28;1274;-81
2020/12/07 00:53:28;;;;;;;;;;;;;;;;;;5036981;28;1347;-81
2020/12/07 00:55:53;;;;;;;;;;;;;;;;;;5037553;28;818;-81
2020/12/07 00:58:22;;;;;;;;;;;;;;;;;;5037347;28;919;-82
2020/12/07 01:00:47;;;;;;;;;;;;;;;;;;5036475;28;1302;-81
2020/12/07 01:03:12;;;;;;;;;;;;;;;;;;5037317;28;1389;-81
2020/12/07 01:05:38;;;;;;;;;;;;;;;;;;5036156;28;1605;-81
2020/12/07 01:08:03;;;;;;;;;;;;;;;;;;5037342;28;2021;-81
2020/12/07 01:10:28;;;;;;;;;;;;;;;;;;5037226;28;870;-81
2020/12/07 01:12:53;;;;;;;;;;;;;;;;;;5035946;28;1362;-81
2020/12/07 01:15:18;;;;;;;;;;;;;;;;;;5036236;28;1451;-81
2020/12/07 01:17:44;;;;;;;;;;;;;;;;;;5035150;28;1234;-81
2020/12/07 01:20:09;;;;;;;;;;;;;;;;;;5034943;28;979;-81
2020/12/07 01:22:35;;;;;;;;;;;;;;;;;;5037002;28;1408;-82
2020/12/07 01:25:00;;;;;;;;;;;;;;;;;;5037335;28;805;-81
2020/12/07 01:27:26;;;;;;;;;;;;;;;;;;5052452;28;1906;-81
2020/12/07 01:29:51;;;;;;;;;;;;;;;;;;5036698;28;814;-82
2020/12/07 01:32:16;;;;;;;;;;;;;;;;;;5035886;28;1460;-82
2020/12/07 01:34:41;;;;;;;;;;;;;;;;;;5036862;28;810;-82
2020/12/07 01:37:07;;;;;;;;;;;;;;;;;;5036753;28;814;-82
2020/12/07 01:39:32;;;;;;;;;;;;;;;;;;5036799;28;921;-81
2020/12/07 01:41:57;;;;;;;;;;;;;;;;;;5034991;28;1266;-82
2020/12/07 01:44:22;;;;;;;;;;;;;;;;;;5035970;28;872;-82
2020/12/07 01:46:48;;;;;;;;;;;;;;;;;;5036457;28;1886;-82
2020/12/07 01:49:13;;;;;;;;;;;;;;;;;;5036838;28;880;-82
2020/12/07 01:51:39;;;;;;;;;;;;;;;;;;5036334;28;1405;-82
2020/12/07 01:54:04;;;;;;;;;;;;;;;;;;5035199;28;869;-82
2020/12/07 01:56:30;;;;;;;;;;;;;;;;;;5036427;28;892;-81
2020/12/07 01:58:56;;;;;;;;;;;;;;;;;;5034913;28;1472;-82
2020/12/07 02:01:21;;;;;;;;;;;;;;;;;;5036284;28;1306;-82
2020/12/07 02:03:46;;;;;;;;;;;;;;;;;;5036341;28;849;-82
2020/12/07 02:06:12;;;;;;;;;;;;;;;;;;5034867;28;1886;-81
2020/12/07 02:08:37;;;;;;;;;;;;;;;;;;5036350;28;798;-81
2020/12/07 02:11:02;;;;;;;;;;;;;;;;;;5035927;28;1325;-81
2020/12/07 02:13:28;;;;;;;;;;;;;;;;;;5036037;28;876;-81
2020/12/07 02:15:53;;;;;;;;;;;;;;;;;;5036215;28;952;-81
2020/12/07 02:18:18;;;;;;;;;;;;;;;;;;5034730;28;1290;-81
2020/12/07 02:20:47;;;;;;;;;;;;;;;;;;5035849;28;842;-82
2020/12/07 02:23:12;;;;;;;;;;;;;;;;;;5034935;28;1361;-82
2020/12/07 02:25:38;;;;;;;;;;;;;;;;;;5034709;28;1344;-81
2020/12/07 02:28:03;;;;;;;;;;;;;;;;;;5034453;28;1951;-81
2020/12/07 02:30:28;;;;;;;;;;;;;;;;;;5035169;28;886;-82
2020/12/07 02:32:53;;;;;;;;;;;;;;;;;;5034334;28;1597;-81
2020/12/07 02:35:19;;;;;;;;;;;;;;;;;;5034600;28;1423;-82
2020/12/07 02:37:45;;;;;;;;;;;;;;;;;;5051018;28;1617;-82
2020/12/07 02:40:11;;;;;;;;;;;;;;;;;;5035632;28;929;-82
2020/12/07 02:42:37;;;;;;;;;;;;;;;;;;5034174;28;1446;-81
2020/12/07 02:45:07;;;;;;;;;;;;;;;;;;5034208;28;1019;-82
2020/12/07 02:47:32;;;;;;;;;;;;;;;;;;5035454;28;1958;-82
2020/12/07 02:49:57;;;;;;;;;;;;;;;;;;5035506;28;818;-82
2020/12/07 02:52:23;;;;;;;;;;;;;;;;;;5034022;28;1424;-82
2020/12/07 02:54:50;;;;;;;;;;;;;;;;;;5050962;28;1251;-82
2020/12/07 02:57:16;;;;;;;;;;;;;;;;;;5034077;28;873;-82
2020/12/07 02:59:41;;;;;;;;;;;;;;;;;;5050886;28;1381;-82
2020/12/07 03:02:06;;;;;;;;;;;;;;;;;;5033787;28;1578;-82
2020/12/07 03:04:31;;;;;;;;;;;;;;;;;;5034118;28;1443;-82
2020/12/07 03:06:56;;;;;;;;;;;;;;;;;;5050374;28;1902;-82
2020/12/07 03:09:22;;;;;;;;;;;;;;;;;;5033814;28;1380;-83
2020/12/07 03:11:47;;;;;;;;;;;;;;;;;;5033813;28;1436;-82
2020/12/07 03:14:13;;;;;;;;;;;;;;;;;;5033722;28;1196;-82
2020/12/07 03:16:38;;;;;;;;;;;;;;;;;;5033700;28;1835;-82
2020/12/07 03:19:03;;;;;;;;;;;;;;;;;;5034241;28;1398;-81
2020/12/07 03:21:28;;;;;;;;;;;;;;;;;;5033616;28;1298;-82
2020/12/07 03:23:54;;;;;;;;;;;;;;;;;;5050114;28;2162;-82
2020/12/07 03:26:19;;;;;;;;;;;;;;;;;;5033668;28;1902;-82
2020/12/07 03:28:44;;;;;;;;;;;;;;;;;;5050155;28;901;-82
2020/12/07 03:31:09;;;;;;;;;;;;;;;;;;5034671;28;1412;-82
2020/12/07 03:33:34;;;;;;;;;;;;;;;;;;5034738;28;918;-82
2020/12/07 03:36:00;;;;;;;;;;;;;;;;;;5033467;28;910;-81
2020/12/07 03:38:25;;;;;;;;;;;;;;;;;;5033774;28;801;-82
2020/12/07 03:40:50;;;;;;;;;;;;;;;;;;5032988;28;1290;-81
2020/12/07 03:43:15;;;;;;;;;;;;;;;;;;5034203;28;1322;-82
2020/12/07 03:45:42;;;;;;;;;;;;;;;;;;5034730;28;977;-82
2020/12/07 03:48:07;;;;;;;;;;;;;;;;;;5033379;28;1906;-81
2020/12/07 03:50:33;;;;;;;;;;;;;;;;;;5034842;28;837;-82
2020/12/07 03:52:58;;;;;;;;;;;;;;;;;;5033303;28;1267;-81
2020/12/07 03:55:23;;;;;;;;;;;;;;;;;;5033293;28;882;-81
2020/12/07 03:57:48;;;;;;;;;;;;;;;;;;5034735;28;978;-81
2020/12/07 04:00:14;;;;;;;;;;;;;;;;;;5033664;28;1263;-81
2020/12/07 04:02:39;;;;;;;;;;;;;;;;;;5033204;28;1479;-81
2020/12/07 04:05:13;;;;;;;;;;;;;;;;;;5034728;28;928;-81
2020/12/07 04:07:38;;;;;;;;;;;;;;;;;;5033136;28;1902;-82
2020/12/07 04:10:03;;;;;;;;;;;;;;;;;;5033147;28;1268;-82
2020/12/07 04:12:29;;;;;;;;;;;;;;;;;;5034363;28;1306;-81
2020/12/07 04:14:54;;;;;;;;;;;;;;;;;;5034703;28;731;-82
2020/12/07 04:17:19;;;;;;;;;;;;;;;;;;5032965;28;1114;-82
2020/12/07 04:19:44;;;;;;;;;;;;;;;;;;5034200;28;936;-81
2020/12/07 04:22:10;;;;;;;;;;;;;;;;;;5034235;28;1286;-82
2020/12/07 04:24:35;;;;;;;;;;;;;;;;;;5033249;28;921;-82
2020/12/07 04:27:00;;;;;;;;;;;;;;;;;;5033065;28;1963;-82
2020/12/07 04:29:25;;;;;;;;;;;;;;;;;;5034357;28;889;-82
2020/12/07 04:31:51;;;;;;;;;;;;;;;;;;5033020;28;1429;-82
2020/12/07 04:34:16;;;;;;;;;;;;;;;;;;5034379;28;763;-82
2020/12/07 04:36:41;;;;;;;;;;;;;;;;;;5034396;28;881;-81
2020/12/07 04:39:06;;;;;;;;;;;;;;;;;;5032837;28;1420;-82
2020/12/07 04:41:32;;;;;;;;;;;;;;;;;;5032966;28;1400;-82
2020/12/07 04:43:57;;;;;;;;;;;;;;;;;;5049402;28;1540;-82
2020/12/07 04:46:22;;;;;;;;;;;;;;;;;;5034112;28;1957;-82
2020/12/07 04:48:51;;;;;;;;;;;;;;;;;;5032718;28;1930;-82
2020/12/07 04:51:17;;;;;;;;;;;;;;;;;;5032938;28;1454;-82
2020/12/07 04:53:43;;;;;;;;;;;;;;;;;;5035100;28;1229;-82
2020/12/07 04:56:09;;;;;;;;;;;;;;;;;;5052827;28;1378;-82
2020/12/07 04:58:34;;;;;;;;;;;;;;;;;;5052784;28;1400;-81
2020/12/07 05:00:59;;;;;;;;;;;;;;;;;;5036091;28;1455;-82
2020/12/07 05:03:25;;;;;;;;;;;;;;;;;;5052938;28;1652;-81
2020/12/07 05:05:53;;;;;;;;;;;;;;;;;;5036090;28;1433;-81
2020/12/07 05:08:18;;;;;;;;;;;;;;;;;;5035988;28;1964;-82
2020/12/07 05:10:45;;;;;;;;;;;;;;;;;;5037334;28;829;-81
2020/12/07 05:13:48;;;;;;;;;;;;;;;;;;5037464;28;1420;-81
2020/12/07 05:16:02;;;;;;;;;;;;;;;;;;5034066;28;1125;-81
2020/12/07 05:18:27;;;;;;;;;;;;;;;;;;5037403;28;809;-81
2020/12/07 05:20:53;;;;;;;;;;;;;;;;;;5035600;28;957;-81
2020/12/07 05:23:18;;;;;;;;;;;;;;;;;;5037034;28;1408;-81
2020/12/07 05:25:45;;;;;;;;;;;;;;;;;;5037047;28;873;-82
2020/12/07 05:28:11;;;;;;;;;;;;;;;;;;5035656;28;1882;-81
2020/12/07 05:30:41;;;;;;;;;;;;;;;;;;5037095;28;783;-81
2020/12/07 05:33:07;;;;;;;;;;;;;;;;;;5036756;28;1325;-81
2020/12/07 05:35:38;;;;;;;;;;;;;;;;;;5036909;28;941;-81
2020/12/07 05:38:04;;;;;;;;;;;;;;;;;;5036972;28;889;-81
2020/12/07 05:40:29;;;;;;;;;;;;;;;;;;5035858;28;1505;-82
2020/12/07 05:42:56;;;;;;;;;;;;;;;;;;5036662;28;1318;-82
2020/12/07 05:45:21;;;;;;;;;;;;;;;;;;5052170;28;869;-82
2020/12/07 05:47:48;;;;;;;;;;;;;;;;;;5035262;28;1890;-82
2020/12/07 05:50:13;;;;;;;;;;;;;;;;;;5035034;28;1454;-82
2020/12/07 05:52:46;;;;;;;;;;;;;;;;;;5036476;28;1290;-82
2020/12/07 05:55:12;;;;;;;;;;;;;;;;;;5035510;28;1362;-82
2020/12/07 05:57:45;;;;;;;;;;;;;;;;;;5037124;28;877;-82
2020/12/07 06:00:11;;;;;;;;;;;;;;;;;;5035203;28;1272;-82
2020/12/07 06:02:37;;;;;;;;;;;;;;;;;;5036446;28;1404;-82
2020/12/07 06:05:02;;;;;;;;;;;;;;;;;;5035213;28;1346;-83
2020/12/07 06:07:30;;;;;;;;;;;;;;;;;;5035417;28;1965;-82
2020/12/07 06:09:57;;;;;;;;;;;;;;;;;;5034480;28;1112;-82
2020/12/07 06:12:27;;;;;;;;;;;;;;;;;;5035950;28;1385;-82
2020/12/07 06:14:53;;;;;;;;;;;;;;;;;;5036095;28;869;-82
2020/12/07 06:17:25;;;;;;;;;;;;;;;;;;5051866;28;1324;-82
2020/12/07 06:19:52;;;;;;;;;;;;;;;;;;5035829;28;831;-82
2020/12/07 06:22:19;;;;;;;;;;;;;;;;;;5036058;28;1393;-82
2020/12/07 06:24:44;;;;;;;;;;;;;;;;;;5034944;28;1083;-83
2020/12/07 06:27:11;;;;;;;;;;;;;;;;;;5035818;28;1941;-82
2020/12/07 06:29:36;;;;;;;;;;;;;;;;;;5035755;28;901;-82
2020/12/07 06:32:01;;;;;;;;;;;;;;;;;;5035608;28;1381;-82
2020/12/07 06:34:40;;;;;;;;;;;;;;;;;;5035747;28;889;-82
2020/12/07 06:37:11;;;;;;;;;;;;;;;;;;5035792;28;849;-82
2020/12/07 06:39:58;;;;;;;;;;;;;;;;;;5034568;28;1275;-82
2020/12/07 06:42:26;;;;;;;;;;;;;;;;;;5035919;28;1362;-82
2020/12/07 06:44:51;;;;;;;;;;;;;;;;;;5034472;28;1192;-83
2020/12/07 06:47:20;;;;;;;;;;;;;;;;;;5034378;28;1956;-83
2020/12/07 06:52:20;;;;;;;;;;;;;;;;;;5035443;28;1373;-82
2020/12/07 06:57:29;;;;;;;;;;;;;;;;;;5037368;28;948;-83
2020/12/07 06:59:55;;;;;;;;;;;;;;;;;;5036821;28;1062;-83
2020/12/07 07:02:21;;;;;;;;;;;;;;;;;;5037070;28;1380;-83
2020/12/07 07:04:56;;;;;;;;;;;;;;;;;;5036676;28;807;-82
2020/12/07 07:07:22;;;;;;;;;;;;;;;;;;5035557;28;1927;-83
2020/12/07 07:09:47;;;;;;;;;;;;;;;;;;5035795;28;928;-83
2020/12/07 07:12:13;;;;;;;;;;;;;;;;;;5035096;28;1286;-83
2020/12/07 07:14:38;;;;;;;;;;;;;;;;;;5033727;28;1244;-83
2020/12/07 07:17:03;;;;;;;;;;;;;;;;;;5033590;28;1254;-82
2020/12/07 07:19:29;;;;;;;;;;;;;;;;;;5034741;28;834;-83
2020/12/07 07:21:54;;;;;;;;;;;;;;;;;;5033753;28;1459;-82
2020/12/07 07:24:19;;;;;;;;;;;;;;;;;;5034909;28;984;-83
2020/12/07 07:26:45;;;;;;;;;;;;;;;;;;5034859;28;1967;-82
2020/12/07 07:29:11;;;;;;;;;;;;;;;;;;5034866;28;904;-82
2020/12/07 07:31:36;;;;;;;;;;;;;;;;;;5033368;28;1282;-82
2020/12/07 07:34:01;;;;;;;;;;;;;;;;;;5050186;28;1180;-82
2020/12/07 07:36:27;;;;;;;;;;;;;;;;;;5034694;28;838;-82
2020/12/07 07:38:56;;;;;;;;;;;;;;;;;;5050115;28;1236;-81
2020/12/07 07:41:25;;;;;;;;;;;;;;;;;;5034468;28;1302;-82
2020/12/07 07:43:51;;;;;;;;;;;;;;;;;;5033940;28;1480;-82
2020/12/07 07:46:18;;;;;;;;;;;;;;;;;;5033376;28;1949;-82
2020/12/07 07:48:55;;;;;;;;;;;;;;;;;;5034749;28;884;-82
2020/12/07 08:16:16;;;;;;;;;;;;;;;;;;5034677;28;688;-83
2020/12/07 08:18:42;;;;;;;;;;;;;;;;;;5033217;28;1309;-83
2020/12/07 08:21:09;;;;;;;;;;;;;;;;;;5032814;28;1302;-83
2020/12/07 08:23:34;;;;;;;;;;;;;;;;;;5033358;28;1106;-83
2020/12/07 08:26:04;;;;;;;;;;;;;;;;;;5034439;28;907;-82
2020/12/07 08:28:34;;;;;;;;;;;;;;;;;;5034897;28;1965;-82
2020/12/07 08:30:59;;;;;;;;;;;;;;;;;;5036717;28;1382;-82
2020/12/07 08:33:25;;;;;;;;;;;;;;;;;;5037961;28;1310;-83
2020/12/07 08:35:50;;;;;;;;;;;;;;;;;;5036679;28;1248;-82
2020/12/07 08:38:26;;;;;;;;;;;;;;;;;;5036665;28;1440;-82
2020/12/07 08:40:51;;;;;;;;;;;;;;;;;;5038431;28;865;-82
2020/12/07 08:43:17;;;;;;;;;;;;;;;;;;5038179;28;1452;-82
2020/12/07 08:45:46;;;;;;;;;;;;;;;;;;5039409;28;924;-82
2020/12/07 08:48:12;;;;;;;;;;;;;;;;;;5037972;28;1882;-83
2020/12/07 08:50:38;;;;;;;;;;;;;;;;;;5037644;28;1247;-83
2020/12/07 08:53:03;;;;;;;;;;;;;;;;;;5037771;28;1451;-83
2020/12/07 08:55:28;;;;;;;;;;;;;;;;;;5038488;28;861;-83
2020/12/07 08:57:54;;;;;;;;;;;;;;;;;;5038038;28;902;-83
2020/12/07 09:00:19;;;;;;;;;;;;;;;;;;5053028;28;1259;-83
2020/12/07 09:02:45;;;;;;;;;;;;;;;;;;5037469;28;1413;-83
2020/12/07 09:05:26;;;;;;;;;;;;;;;;;;5036088;28;1156;-82
2020/12/07 09:13:57;;;;;;;;;;;;;;;;;;5037284;28;810;-83
2020/12/07 09:16:22;;;;;;;;;;;;;;;;;;5036136;28;1386;-82
2020/12/07 09:18:48;;;;;;;;;;;;;;;;;;5035956;28;1458;-82
2020/12/07 09:21:13;;;;;;;;;;;;;;;;;;5035697;28;1380;-83
2020/12/07 09:23:39;;;;;;;;;;;;;;;;;;5035520;28;1121;-82
2020/12/07 09:26:05;;;;;;;;;;;;;;;;;;5036062;28;822;-82
2020/12/07 09:28:30;;;;;;;;;;;;;;;;;;5035878;28;1959;-82
2020/12/07 09:31:22;;;;;;;;;;;;;;;;;;5035143;28;1354;-83
2020/12/07 09:33:48;;;;;;;;;;;;;;;;;;5035506;28;1420;-82
2020/12/07 09:36:13;;;;;;;;;;;;;;;;;;5035607;28;1244;-83
2020/12/07 09:38:39;;;;;;;;;;;;;;;;;;5036473;28;805;-83
2020/12/07 09:41:04;;;;;;;;;;;;;;;;;;5034106;28;2078;-82
2020/12/07 09:43:30;;;;;;;;;;;;;;;;;;5036702;28;899;-83
2020/12/07 09:45:55;;;;;;;;;;;;;;;;;;5035408;28;1294;-82
2020/12/07 09:48:21;;;;;;;;;;;;;;;;;;5035345;28;1902;-83
2020/12/07 09:50:46;;;;;;;;;;;;;;;;;;5035219;28;1371;-83
2020/12/07 09:53:15;;;;;;;;;;;;;;;;;;5035550;28;1487;-83
2020/12/07 09:55:41;;;;;;;;;;;;;;;;;;5036411;28;845;-83
2020/12/07 09:58:06;;;;;;;;;;;;;;;;;;5036412;28;854;-83
2020/12/07 10:00:32;;;;;;;;;;;;;;;;;;5034850;28;869;-83
2020/12/07 10:02:57;;;;;;;;;;;;;;;;;;5035369;28;1365;-84
2020/12/07 10:05:22;;;;;;;;;;;;;;;;;;5036487;28;841;-82
2020/12/07 10:07:48;;;;;;;;;;;;;;;;;;5034899;28;2009;-81
2020/12/07 10:10:14;;;;;;;;;;;;;;;;;;5034970;28;857;-84
2020/12/07 10:12:39;;;;;;;;;;;;;;;;;;5034901;28;1361;-84
2020/12/07 10:15:06;;;;;;;;;;;;;;;;;;5036291;28;810;-82
2020/12/07 10:17:31;;;;;;;;;;;;;;;;;;5036120;28;841;-82
2020/12/07 10:19:57;;;;;;;;;;;;;;;;;;5035973;28;893;-83
2020/12/07 10:22:22;;;;;;;;;;;;;;;;;;5036143;28;1287;-82
2020/12/07 10:24:47;;;;;;;;;;;;;;;;;;5035151;28;1221;-82
2020/12/07 10:27:13;;;;;;;;;;;;;;;;;;5035826;28;1894;-82
2020/12/07 10:29:38;;;;;;;;;;;;;;;;;;5035702;28;862;-81
2020/12/07 10:32:04;;;;;;;;;;;;;;;;;;5034491;28;1286;-81
2020/12/07 10:34:29;;;;;;;;;;;;;;;;;;5034895;28;1529;-81
2020/12/07 10:36:55;;;;;;;;;;;;;;;;;;5035793;28;842;-81
2020/12/07 10:39:20;;;;;;;;;;;;;;;;;;5034522;28;1250;-81
2020/12/07 10:41:45;;;;;;;;;;;;;;;;;;5034194;28;1404;-81
2020/12/07 10:44:11;;;;;;;;;;;;;;;;;;5034613;28;1195;-82
2020/12/07 10:46:37;;;;;;;;;;;;;;;;;;5034296;28;1890;-83
2020/12/07 10:49:08;;;;;;;;;;;;;;;;;;5034501;28;1372;-82
2020/12/07 10:51:34;;;;;;;;;;;;;;;;;;5033723;28;2069;-83
2020/12/07 10:54:00;;;;;;;;;;;;;;;;;;5035558;28;877;-83
2020/12/07 10:56:25;;;;;;;;;;;;;;;;;;5035685;28;1369;-82
2020/12/07 10:58:51;;;;;;;;;;;;;;;;;;5026984;28;1570;-82
2020/12/07 11:01:17;;;;;;;;;;;;;;;;;;5033198;28;1480;-82
2020/12/07 11:03:42;;;;;;;;;;;;;;;;;;5034008;28;1246;-81
2020/12/07 11:06:52;;;;;;;;;;;;;;;;;;5034007;28;707;-82
2020/12/07 11:08:58;;;;;;;;;;;;;;;;;;5026866;28;1174;-82
2020/12/07 11:11:23;;;;;;;;;;;;;;;;;;5035044;28;1283;-82
2020/12/07 11:13:49;;;;;;;;;;;;;;;;;;5033896;28;1443;-82
2020/12/07 11:16:15;;;;;;;;;;;;;;;;;;5035062;28;873;-81
2020/12/07 11:18:40;;;;;;;;;;;;;;;;;;5034995;28;801;-82
2020/12/07 11:21:12;;;;;;;;;;;;;;;;;;5033617;28;1353;-82
2020/12/07 11:23:40;;;;;;;;;;;;;;;;;;5033766;28;1172;-82
2020/12/07 11:26:05;;;;;;;;;;;;;;;;;;5034942;28;793;-82
2020/12/07 11:28:31;;;;;;;;;;;;;;;;;;5034281;28;1898;-82
2020/12/07 11:30:56;;;;;;;;;;;;;;;;;;5033755;28;1288;-81
2020/12/07 11:33:21;;;;;;;;;;;;;;;;;;5034717;28;1341;-82
2020/12/07 11:35:46;;;;;;;;;;;;;;;;;;5050317;28;1493;-82
2020/12/07 11:38:19;;;;;;;;;;;;;;;;;;5033463;28;1474;-82
2020/12/07 11:43:28;;;;;;;;;;;;;;;;;;5026252;28;1499;-81
2020/12/07 11:45:53;;;;;;;;;;;;;;;;;;5014933;28;853;-82
2020/12/07 11:48:19;;;;;;;;;;;;;;;;;;5013515;28;1891;-81
2020/12/07 11:50:44;;;;;;;;;;;;;;;;;;5014000;28;1404;-82
2020/12/07 11:53:09;;;;;;;;;;;;;;;;;;5014907;28;1338;-82
2020/12/07 11:55:35;;;;;;;;;;;;;;;;;;5014849;28;890;-82
2020/12/07 11:58:01;;;;;;;;;;;;;;;;;;5014879;28;886;-82
2020/12/07 12:00:26;;;;;;;;;;;;;;;;;;5013700;28;1331;-81
2020/12/07 12:02:51;;;;;;;;;;;;;;;;;;5014797;28;1294;-82
2020/12/07 12:05:17;;;;;;;;;;;;;;;;;;5017459;28;944;-82
2020/12/07 12:07:42;;;;;;;;;;;;;;;;;;5018666;28;1907;-82
2020/12/07 12:10:08;;;;;;;;;;;;;;;;;;5017204;28;890;-82
2020/12/07 12:12:33;;;;;;;;;;;;;;;;;;5017813;28;1484;-82
2020/12/07 12:14:58;;;;;;;;;;;;;;;;;;5017365;28;1332;-81
2020/12/07 12:17:23;;;;;;;;;;;;;;;;;;5018643;28;811;-82
2020/12/07 12:19:49;;;;;;;;;;;;;;;;;;5018055;28;973;-81
2020/12/07 12:22:14;;;;;;;;;;;;;;;;;;5017190;28;1412;-82
2020/12/07 12:24:39;;;;;;;;;;;;;;;;;;5018672;28;824;-82
2020/12/07 12:27:05;;;;;;;;;;;;;;;;;;5017159;28;1988;-82
2020/12/07 12:29:30;;;;;;;;;;;;;;;;;;5017163;28;1364;-81
2020/12/07 12:31:55;;;;;;;;;;;;;;;;;;5016726;28;1314;-82
2020/12/07 12:34:20;;;;;;;;;;;;;;;;;;5017033;28;1287;-82
2020/12/07 12:36:47;;;;;;;;;;;;;;;;;;5016945;28;1390;-82
2020/12/07 12:39:12;;;;;;;;;;;;;;;;;;5019880;28;1262;-82
2020/12/07 12:41:38;;;;;;;;;;;;;;;;;;5016999;28;1349;-82
2020/12/07 12:44:07;;;;;;;;;;;;;;;;;;5016807;28;826;-82
2020/12/07 12:46:33;;;;;;;;;;;;;;;;;;5016492;28;1887;-82
2020/12/07 12:48:58;;;;;;;;;;;;;;;;;;5029317;28;1530;-82
2020/12/07 12:51:23;;;;;;;;;;;;;;;;;;5023421;28;1498;-82
2020/12/07 12:53:48;;;;;;;;;;;;;;;;;;5027983;28;1439;-82
2020/12/07 12:56:14;;;;;;;;;;;;;;;;;;5026034;28;1489;-82
2020/12/07 12:58:39;;;;;;;;;;;;;;;;;;5018860;28;1374;-82
2020/12/07 13:01:05;;;;;;;;;;;;;;;;;;5023045;28;1503;-82
2020/12/07 13:03:30;;;;;;;;;;;;;;;;;;5026291;28;1707;-82
2020/12/07 13:05:55;;;;;;;;;;;;;;;;;;5034561;28;1584;-82
2020/12/07 13:08:21;;;;;;;;;;;;;;;;;;5036524;28;1886;-82
2020/12/07 13:10:49;;;;;;;;;;;;;;;;;;5026993;28;1444;-82
2020/12/07 13:13:15;;;;;;;;;;;;;;;;;;5024689;28;1472;-82
2020/12/07 13:15:48;;;;;;;;;;;;;;;;;;5035900;28;1696;-82
2020/12/07 13:18:13;;;;;;;;;;;;;;;;;;5037267;28;978;-82
2020/12/07 13:20:45;;;;;;;;;;;;;;;;;;5036034;28;811;-82
2020/12/07 13:23:24;;;;;;;;;;;;;;;;;;5035870;28;1389;-82
2020/12/07 13:26:03;;;;;;;;;;;;;;;;;;5037200;28;896;-82
2020/12/07 13:28:28;;;;;;;;;;;;;;;;;;5039027;28;1882;-82
2020/12/07 13:30:53;;;;;;;;;;;;;;;;;;5035615;28;904;-82
2020/12/07 13:33:19;;;;;;;;;;;;;;;;;;5036953;28;1405;-82
2020/12/07 13:35:44;;;;;;;;;;;;;;;;;;5035752;28;1271;-82
2020/12/07 13:38:10;;;;;;;;;;;;;;;;;;5035574;28;1337;-82
2020/12/07 13:40:35;;;;;;;;;;;;;;;;;;5035289;28;1198;-82
2020/12/07 13:43:01;;;;;;;;;;;;;;;;;;5036328;28;1263;-82
2020/12/07 13:45:26;;;;;;;;;;;;;;;;;;5036743;28;798;-82
2020/12/07 13:47:52;;;;;;;;;;;;;;;;;;5035419;28;1945;-82
2020/12/07 13:50:17;;;;;;;;;;;;;;;;;;5036359;28;847;-82
2020/12/07 13:52:42;;;;;;;;;;;;;;;;;;5035358;28;1536;-82
2020/12/07 13:55:08;;;;;;;;;;;;;;;;;;5035585;28;1372;-82
2020/12/07 13:57:33;;;;;;;;;;;;;;;;;;5035243;28;1475;-82
2020/12/07 13:59:58;;;;;;;;;;;;;;;;;;5035594;28;1411;-82
2020/12/07 14:02:24;;;;;;;;;;;;;;;;;;5035075;28;1369;-82
2020/12/07 14:05:02;;;;;;;;;;;;;;;;;;5036324;28;821;-82
2020/12/07 14:07:27;;;;;;;;;;;;;;;;;;5035840;28;1890;-82
2020/12/07 14:09:53;;;;;;;;;;;;;;;;;;5035892;28;846;-82
2020/12/07 14:12:19;;;;;;;;;;;;;;;;;;5035276;28;1357;-82
2020/12/07 14:14:44;;;;;;;;;;;;;;;;;;5036230;28;984;-82
2020/12/07 14:17:11;;;;;;;;;;;;;;;;;;5035658;28;885;-82
2020/12/07 14:20:07;;;;;;;;;;;;;;;;;;5036013;28;833;-82
2020/12/07 14:28:01;;;;;;;;;;;;;;;;;;5036021;28;1948;-82
2020/12/07 14:40:50;;;;;;;;;;;;;;;;;;5035837;28;692;-82
2020/12/07 14:43:15;;;;;;;;;;;;;;;;;;5035385;28;1306;-82
2020/12/07 14:45:56;;;;;;;;;;;;;;;;;;5035888;28;810;-82
2020/12/07 14:48:22;;;;;;;;;;;;;;;;;;5035403;28;1886;-82
2020/12/07 14:50:52;;;;;;;;;;;;;;;;;;5034050;28;1402;-82
2020/12/07 14:53:24;;;;;;;;;;;;;;;;;;5035899;28;1393;-82
2020/12/07 14:56:07;;;;;;;;;;;;;;;;;;5034593;28;892;-82
2020/12/07 14:59:15;;;;;;;;;;;;;;;;;;5033835;28;1243;-82
2020/12/07 15:06:28;;;;;;;;;;;;;;;;;;5035163;28;1953;-82
2020/12/07 15:09:47;;;;;;;;;;;;;;;;;;5034627;28;857;-82
2020/12/07 15:12:04;;;;;;;;;;;;;;;;;;5034373;28;1349;-82
2020/12/07 15:14:30;;;;;;;;;;;;;;;;;;5033344;28;1621;-82
2020/12/07 15:16:55;;;;;;;;;;;;;;;;;;5035682;28;888;-82
2020/12/07 15:19:21;;;;;;;;;;;;;;;;;;5034848;28;1272;-82
2020/12/07 15:21:46;;;;;;;;;;;;;;;;;;5036100;28;1401;-82
2020/12/07 15:24:14;;;;;;;;;;;;;;;;;;5035369;28;1278;-82
2020/12/07 15:26:39;;;;;;;;;;;;;;;;;;5034825;28;1937;-82
2020/12/07 15:29:05;;;;;;;;;;;;;;;;;;5036205;28;857;-81
2020/12/07 15:31:31;;;;;;;;;;;;;;;;;;5035727;28;1278;-82
2020/12/07 15:33:57;;;;;;;;;;;;;;;;;;5034491;28;1468;-82
2020/12/07 15:36:22;;;;;;;;;;;;;;;;;;5025227;28;1247;-82
2020/12/07 15:38:48;;;;;;;;;;;;;;;;;;5013939;28;814;-82
2020/12/07 15:41:14;;;;;;;;;;;;;;;;;;5014346;28;1310;-82
2020/12/07 15:43:40;;;;;;;;;;;;;;;;;;5014482;28;879;-82
2020/12/07 15:46:07;;;;;;;;;;;;;;;;;;5014742;28;839;-82
2020/12/07 15:48:32;;;;;;;;;;;;;;;;;;5013226;28;1961;-82
2020/12/07 15:50:57;;;;;;;;;;;;;;;;;;5013378;28;1398;-82
2020/12/07 15:53:22;;;;;;;;;;;;;;;;;;5013507;28;1365;-82
2020/12/07 15:55:47;;;;;;;;;;;;;;;;;;5033107;28;1250;-82
2020/12/07 15:58:13;;;;;;;;;;;;;;;;;;5033922;28;933;-82
2020/12/07 16:00:39;;;;;;;;;;;;;;;;;;5032639;28;1222;-82
2020/12/07 16:03:05;;;;;;;;;;;;;;;;;;5033985;28;1326;-82
2020/12/07 16:05:31;;;;;;;;;;;;;;;;;;5034607;28;853;-82
2020/12/07 16:07:56;;;;;;;;;;;;;;;;;;5032850;28;1957;-82
2020/12/07 16:10:22;;;;;;;;;;;;;;;;;;5033543;28;782;-82
2020/12/07 16:12:47;;;;;;;;;;;;;;;;;;5033790;28;1306;-82
2020/12/07 16:15:13;;;;;;;;;;;;;;;;;;5033832;28;928;-82
2020/12/07 16:17:38;;;;;;;;;;;;;;;;;;5034084;28;817;-82
2020/12/07 16:20:03;;;;;;;;;;;;;;;;;;5034126;28;1190;-82
2020/12/07 16:22:29;;;;;;;;;;;;;;;;;;5034101;28;1413;-82
2020/12/07 16:24:54;;;;;;;;;;;;;;;;;;5032470;28;1175;-85
2020/12/07 16:27:19;;;;;;;;;;;;;;;;;;5032433;28;1890;-82
2020/12/07 16:29:44;;;;;;;;;;;;;;;;;;5032612;28;1239;-82
2020/12/07 16:32:10;;;;;;;;;;;;;;;;;;5033723;28;1416;-82
2020/12/07 16:34:35;;;;;;;;;;;;;;;;;;5033746;28;747;-82
2020/12/07 16:37:01;;;;;;;;;;;;;;;;;;5032362;28;1550;-82
2020/12/07 16:39:26;;;;;;;;;;;;;;;;;;5032295;28;1388;-82
2020/12/07 16:41:52;;;;;;;;;;;;;;;;;;5032097;28;1367;-82
2020/12/07 16:44:18;;;;;;;;;;;;;;;;;;5032372;28;1246;-82
2020/12/07 16:46:43;;;;;;;;;;;;;;;;;;5032262;28;1898;-82
2020/12/07 16:49:08;;;;;;;;;;;;;;;;;;5030237;28;1701;-82
2020/12/07 16:51:34;;;;;;;;;;;;;;;;;;5016096;28;1350;-84
2020/12/07 16:53:59;;;;;;;;;;;;;;;;;;5015918;28;1266;-83
2020/12/07 16:56:25;;;;;;;;;;;;;;;;;;5017266;28;873;-82
2020/12/07 16:58:50;;;;;;;;;;;;;;;;;;5015864;28;1205;-83
2020/12/07 17:01:16;;;;;;;;;;;;;;;;;;5017153;28;1326;-83
2020/12/07 17:03:41;;;;;;;;;;;;;;;;;;5017781;28;877;-83
2020/12/07 17:06:06;;;;;;;;;;;;;;;;;;5017299;28;1764;-83
2020/12/07 17:08:32;;;;;;;;;;;;;;;;;;5017487;28;1965;-83
2020/12/07 17:10:57;;;;;;;;;;;;;;;;;;5018487;28;834;-83
2020/12/07 17:13:22;;;;;;;;;;;;;;;;;;5018480;28;1291;-83
2020/12/07 17:15:48;;;;;;;;;;;;;;;;;;5018360;28;802;-83
2020/12/07 17:18:13;;;;;;;;;;;;;;;;;;5017177;28;948;-83
2020/12/07 17:20:38;;;;;;;;;;;;;;;;;;5015520;28;1302;-83
2020/12/07 17:23:03;;;;;;;;;;;;;;;;;;5015805;28;1374;-83
2020/12/07 17:25:29;;;;;;;;;;;;;;;;;;5016721;28;881;-83
2020/12/07 17:27:54;;;;;;;;;;;;;;;;;;5016601;28;1894;-83
2020/12/07 17:30:20;;;;;;;;;;;;;;;;;;5015404;28;1310;-82
2020/12/07 17:32:45;;;;;;;;;;;;;;;;;;5017024;28;1302;-83
2020/12/07 17:35:10;;;;;;;;;;;;;;;;;;5015651;28;881;-83
2020/12/07 17:37:36;;;;;;;;;;;;;;;;;;5016773;28;794;-83
2020/12/07 17:40:01;;;;;;;;;;;;;;;;;;5016734;28;829;-83
2020/12/07 17:42:27;;;;;;;;;;;;;;;;;;5016693;28;1307;-83
2020/12/07 17:44:52;;;;;;;;;;;;;;;;;;5016786;28;834;-83
2020/12/07 17:47:17;;;;;;;;;;;;;;;;;;5015502;28;1894;-83
2020/12/07 17:49:43;;;;;;;;;;;;;;;;;;5016237;28;869;-83
2020/12/07 17:52:08;;;;;;;;;;;;;;;;;;5016572;28;1326;-83
2020/12/07 17:54:33;;;;;;;;;;;;;;;;;;5016651;28;830;-83
2020/12/07 17:56:58;;;;;;;;;;;;;;;;;;5014824;28;1114;-83
2020/12/07 17:59:24;;;;;;;;;;;;;;;;;;5014704;28;1172;-83
2020/12/07 18:01:53;;;;;;;;;;;;;;;;;;5021593;28;1428;-83